createdAt,value
2018-05-14T00:00:22.311Z,13.78
2018-05-14T00:02:49.352Z,13.77
2018-05-14T00:05:16.386Z,13.76
2018-05-14T00:07:43.417Z,13.82
2018-05-14T00:10:10.580Z,13.83
2018-05-14T00:12:37.640Z,13.88
2018-05-14T00:15:04.688Z,13.84
2018-05-14T00:17:31.791Z,13.89
2018-05-14T00:19:58.948Z,13.76
2018-05-14T00:22:26.117Z,13.79
2018-05-14T00:24:53.212Z,13.82
2018-05-14T00:27:20.483Z,13.87
2018-05-14T00:29:48.294Z,13.91
2018-05-14T00:32:15.299Z,13.89
2018-05-14T00:34:42.313Z,13.93
2018-05-14T00:37:09.369Z,13.95
2018-05-14T00:39:36.519Z,13.98
2018-05-14T00:42:04.014Z,13.96
2018-05-14T00:44:31.138Z,13.95
2018-05-14T00:46:58.584Z,13.96
2018-05-14T00:49:25.952Z,13.99
2018-05-14T00:55:05.801Z,13.91
2018-05-14T00:57:32.823Z,13.88
2018-05-14T00:59:59.858Z,13.80
2018-05-14T01:02:27.003Z,13.80
2018-05-14T01:04:54.028Z,13.82
2018-05-14T01:07:21.161Z,13.67
2018-05-14T01:09:48.299Z,13.63
2018-05-14T01:12:15.443Z,13.40
2018-05-14T01:14:42.530Z,13.41
2018-05-14T01:17:09.571Z,13.31
2018-05-14T01:19:36.609Z,13.25
2018-05-14T01:22:03.644Z,13.30
2018-05-14T01:24:30.733Z,13.31
2018-05-14T01:26:57.762Z,13.37
2018-05-14T01:29:24.837Z,13.30
2018-05-14T01:31:52.019Z,13.25
2018-05-14T01:34:19.297Z,13.28
2018-05-14T01:36:46.467Z,13.11
2018-05-14T01:39:13.574Z,13.14
2018-05-14T01:41:40.977Z,13.20
2018-05-14T01:44:08.088Z,13.18
2018-05-14T01:46:35.417Z,13.25
2018-05-14T01:49:02.493Z,13.27
2018-05-14T01:51:29.744Z,13.27
2018-05-14T01:53:56.938Z,13.25
2018-05-14T01:56:24.005Z,13.31
2018-05-14T01:58:51.013Z,13.26
2018-05-14T02:01:19.195Z,13.25
2018-05-14T02:03:46.397Z,13.28
2018-05-14T02:06:13.582Z,13.28
2018-05-14T02:08:40.741Z,13.26
2018-05-14T02:11:07.821Z,13.31
2018-05-14T02:13:34.952Z,13.28
2018-05-14T02:16:02.929Z,13.28
2018-05-14T02:18:30.027Z,13.22
2018-05-14T02:20:57.156Z,13.25
2018-05-14T02:23:24.296Z,13.16
2018-05-14T02:25:51.423Z,13.17
2018-05-14T02:28:18.461Z,13.23
2018-05-14T02:30:45.512Z,13.22
2018-05-14T02:33:12.589Z,13.22
2018-05-14T02:35:39.713Z,13.28
2018-05-14T02:38:06.847Z,13.25
2018-05-14T02:40:34.058Z,13.29
2018-05-14T02:43:01.093Z,13.24
2018-05-14T02:45:28.137Z,13.26
2018-05-14T02:47:55.267Z,13.28
2018-05-14T02:50:22.452Z,13.18
2018-05-14T02:52:49.608Z,13.20
2018-05-14T02:55:16.630Z,13.24
2018-05-14T02:57:43.693Z,13.27
2018-05-14T03:00:10.728Z,13.31
2018-05-14T03:02:37.804Z,13.25
2018-05-14T03:05:04.852Z,13.13
2018-05-14T03:07:31.983Z,13.08
2018-05-14T03:09:59.128Z,13.09
2018-05-14T03:12:26.263Z,13.08
2018-05-14T03:14:53.421Z,13.10
2018-05-14T03:17:20.449Z,13.05
2018-05-14T03:19:47.639Z,12.97
2018-05-14T03:22:14.719Z,13.03
2018-05-14T03:24:42.027Z,12.84
2018-05-14T03:27:09.048Z,12.87
2018-05-14T03:29:36.069Z,12.84
2018-05-14T03:32:03.113Z,12.87
2018-05-14T03:34:30.462Z,12.92
2018-05-14T03:36:57.512Z,12.98
2018-05-14T03:39:24.547Z,13.02
2018-05-14T03:41:51.605Z,13.01
2018-05-14T03:44:18.638Z,13.10
2018-05-14T03:46:45.642Z,13.14
2018-05-14T03:49:12.683Z,13.08
2018-05-14T03:51:40.158Z,13.04
2018-05-14T03:54:07.214Z,12.91
2018-05-14T03:56:34.459Z,12.88
2018-05-14T03:59:07.508Z,12.85
2018-05-14T04:01:40.479Z,12.80
2018-05-14T04:04:13.322Z,12.85
2018-05-14T04:06:40.480Z,12.88
2018-05-14T04:09:07.522Z,12.82
2018-05-14T04:11:34.825Z,12.80
2018-05-14T04:14:03.003Z,12.71
2018-05-14T04:16:30.160Z,12.72
2018-05-14T04:18:57.228Z,12.70
2018-05-14T04:21:24.299Z,12.68
2018-05-14T04:23:51.345Z,12.71
2018-05-14T04:26:18.667Z,12.71
2018-05-14T04:28:45.928Z,12.70
2018-05-14T04:31:13.004Z,12.72
2018-05-14T04:33:40.060Z,12.81
2018-05-14T04:36:07.073Z,12.78
2018-05-14T04:38:34.233Z,12.74
2018-05-14T04:41:01.279Z,12.84
2018-05-14T04:43:29.169Z,12.92
2018-05-14T04:45:56.203Z,12.91
2018-05-14T04:48:23.300Z,12.96
2018-05-14T04:50:50.345Z,13.00
2018-05-14T04:53:17.341Z,13.01
2018-05-14T04:55:44.514Z,13.10
2018-05-14T04:58:11.544Z,13.09
2018-05-14T05:00:39.200Z,13.16
2018-05-14T05:03:06.416Z,13.21
2018-05-14T05:05:33.584Z,13.25
2018-05-14T05:08:00.689Z,13.20
2018-05-14T05:10:27.924Z,13.25
2018-05-14T05:12:54.900Z,13.23
2018-05-14T05:15:22.030Z,13.27
2018-05-14T05:17:49.181Z,13.34
2018-05-14T05:20:16.456Z,13.33
2018-05-14T05:22:43.549Z,13.33
2018-05-14T05:25:10.587Z,13.37
2018-05-14T05:27:37.700Z,13.40
2018-05-14T05:30:04.945Z,13.44
2018-05-14T05:32:32.034Z,13.48
2018-05-14T05:34:59.101Z,13.48
2018-05-14T05:37:26.146Z,13.39
2018-05-14T05:39:53.436Z,13.43
2018-05-14T05:42:20.679Z,13.46
2018-05-14T05:44:47.807Z,13.48
2018-05-14T05:47:14.896Z,13.57
2018-05-14T05:49:42.047Z,13.60
2018-05-14T05:52:09.171Z,13.62
2018-05-14T05:54:38.229Z,13.70
2018-05-14T05:57:05.236Z,13.62
2018-05-14T05:59:32.461Z,13.63
2018-05-14T06:01:59.682Z,13.70
2018-05-14T06:04:26.706Z,13.70
2018-05-14T06:06:53.730Z,13.70
2018-05-14T06:09:21.008Z,13.73
2018-05-14T06:11:48.103Z,13.78
2018-05-14T06:14:15.211Z,13.86
2018-05-14T06:16:42.448Z,13.90
2018-05-14T06:19:09.500Z,13.90
2018-05-14T06:21:36.666Z,13.98
2018-05-14T06:24:03.764Z,13.90
2018-05-14T06:26:30.850Z,13.90
2018-05-14T06:28:57.869Z,14.03
2018-05-14T06:31:25.069Z,14.20
2018-05-14T06:33:52.256Z,14.35
2018-05-14T06:36:19.551Z,14.32
2018-05-14T06:38:46.724Z,14.37
2018-05-14T06:41:13.766Z,14.38
2018-05-14T06:43:40.825Z,14.18
2018-05-14T06:46:08.575Z,14.18
2018-05-14T06:48:35.626Z,14.37
2018-05-14T06:51:02.655Z,14.47
2018-05-14T06:53:29.805Z,14.51
2018-05-14T06:55:57.641Z,14.66
2018-05-14T06:58:24.684Z,14.70
2018-05-14T07:00:51.955Z,14.74
2018-05-14T07:03:20.206Z,14.81
2018-05-14T07:05:47.610Z,14.73
2018-05-14T07:08:14.878Z,14.71
2018-05-14T07:10:42.052Z,14.82
2018-05-14T07:13:09.190Z,14.93
2018-05-14T07:15:36.401Z,15.05
2018-05-14T07:18:03.441Z,15.12
2018-05-14T07:20:30.494Z,15.15
2018-05-14T07:22:57.505Z,15.28
2018-05-14T07:25:24.634Z,15.44
2018-05-14T07:27:51.770Z,15.46
2018-05-14T07:30:18.920Z,15.53
2018-05-14T07:32:46.051Z,15.76
2018-05-14T07:35:13.096Z,15.98
2018-05-14T07:37:40.196Z,16.11
2018-05-14T07:40:07.344Z,16.13
2018-05-14T07:42:34.709Z,16.19
2018-05-14T07:45:01.861Z,16.36
2018-05-14T07:47:29.754Z,16.42
2018-05-14T07:49:56.840Z,16.20
2018-05-14T07:52:23.975Z,16.06
2018-05-14T07:54:51.006Z,15.93
2018-05-14T07:57:18.030Z,15.85
2018-05-14T07:59:45.260Z,15.85
2018-05-14T08:02:12.277Z,15.78
2018-05-14T08:04:39.305Z,15.60
2018-05-14T08:07:06.492Z,15.79
2018-05-14T08:09:33.616Z,15.76
2018-05-14T08:12:00.652Z,15.87
2018-05-14T08:14:27.795Z,15.82
2018-05-14T08:16:54.813Z,15.77
2018-05-14T08:19:21.965Z,15.81
2018-05-14T08:21:49.335Z,15.74
2018-05-14T08:24:16.380Z,15.59
2018-05-14T08:26:44.126Z,15.63
2018-05-14T08:29:11.133Z,15.74
2018-05-14T08:31:38.162Z,15.87
2018-05-14T08:34:05.225Z,15.88
2018-05-14T08:36:32.337Z,15.79
2018-05-14T08:39:00.125Z,15.68
2018-05-14T08:41:27.315Z,15.69
2018-05-14T08:43:54.635Z,15.62
2018-05-14T08:46:21.832Z,15.62
2018-05-14T08:48:49.782Z,15.47
2018-05-14T08:51:16.902Z,15.62
2018-05-14T08:53:43.940Z,15.65
2018-05-14T08:56:11.090Z,15.64
2018-05-14T08:58:38.124Z,15.60
2018-05-14T09:01:05.401Z,15.55
2018-05-14T09:03:32.450Z,15.45
2018-05-14T09:05:59.877Z,15.53
2018-05-14T09:08:27.131Z,15.48
2018-05-14T09:10:54.641Z,15.48
2018-05-14T09:13:21.728Z,15.48
2018-05-14T09:15:48.757Z,15.44
2018-05-14T09:18:15.800Z,15.47
2018-05-14T09:20:42.913Z,15.42
2018-05-14T09:23:09.946Z,15.48
2018-05-14T09:25:37.175Z,15.33
2018-05-14T09:28:04.253Z,15.52
2018-05-14T09:30:31.576Z,15.63
2018-05-14T09:32:58.580Z,15.71
2018-05-14T09:35:25.601Z,15.72
2018-05-14T09:37:52.737Z,15.70
2018-05-14T09:40:19.801Z,15.56
2018-05-14T09:42:46.946Z,15.45
2018-05-14T09:45:14.505Z,15.41
2018-05-14T09:47:41.622Z,15.35
2018-05-14T09:50:08.652Z,15.30
2018-05-14T09:52:35.805Z,15.29
2018-05-14T09:55:02.881Z,15.36
2018-05-14T09:57:29.943Z,15.31
2018-05-14T09:59:56.997Z,15.24
2018-05-14T10:02:24.117Z,15.31
2018-05-14T10:04:51.151Z,15.28
2018-05-14T10:07:18.369Z,15.32
2018-05-14T10:09:45.417Z,15.39
2018-05-14T10:12:12.827Z,15.61
2018-05-14T10:14:39.856Z,15.53
2018-05-14T10:17:06.882Z,15.61
2018-05-14T10:19:34.185Z,15.68
2018-05-14T10:22:01.256Z,15.56
2018-05-14T10:24:28.486Z,15.41
2018-05-14T10:26:55.527Z,15.34
2018-05-14T10:29:22.532Z,15.72
2018-05-14T10:31:49.575Z,15.73
2018-05-14T10:34:16.613Z,15.93
2018-05-14T10:36:43.786Z,15.95
2018-05-14T10:39:10.846Z,16.09
2018-05-14T10:41:38.066Z,16.29
2018-05-14T10:44:05.110Z,16.22
2018-05-14T10:46:32.223Z,16.30
2018-05-14T10:48:59.226Z,16.11
2018-05-14T10:51:26.381Z,16.11
2018-05-14T10:53:53.663Z,15.77
2018-05-14T10:56:20.697Z,15.80
2018-05-14T10:58:47.697Z,15.86
2018-05-14T11:01:15.968Z,15.80
2018-05-14T11:03:43.432Z,15.73
2018-05-14T11:06:11.046Z,15.70
2018-05-14T11:08:38.920Z,15.65
2018-05-14T11:11:06.511Z,15.64
2018-05-14T11:13:34.290Z,15.68
2018-05-14T11:16:02.011Z,15.84
2018-05-14T11:18:29.659Z,15.90
2018-05-14T11:20:57.133Z,15.94
2018-05-14T11:23:24.626Z,16.00
2018-05-14T11:25:52.917Z,15.96
2018-05-14T11:28:20.411Z,15.99
2018-05-14T11:30:47.927Z,16.01
2018-05-14T11:33:15.514Z,16.06
2018-05-14T11:35:43.064Z,15.85
2018-05-14T11:38:10.571Z,15.84
2018-05-14T11:40:38.049Z,15.86
2018-05-14T11:43:05.572Z,16.15
2018-05-14T11:45:33.048Z,16.51
2018-05-14T11:48:00.567Z,16.77
2018-05-14T11:50:28.061Z,16.60
2018-05-14T11:52:55.702Z,16.70
2018-05-14T11:55:23.356Z,16.90
2018-05-14T11:57:50.856Z,16.87
2018-05-14T12:00:18.338Z,16.60
2018-05-14T12:02:45.893Z,16.53
2018-05-14T12:05:13.461Z,16.61
2018-05-14T12:07:40.976Z,16.56
2018-05-14T12:10:08.738Z,16.61
2018-05-14T12:12:35.817Z,16.72
2018-05-14T12:15:02.955Z,17.08
2018-05-14T12:17:29.986Z,17.30
2018-05-14T12:19:57.400Z,17.43
2018-05-14T12:22:24.414Z,17.45
2018-05-14T12:24:51.449Z,17.61
2018-05-14T12:27:18.762Z,17.39
2018-05-14T12:29:46.484Z,17.38
2018-05-14T12:32:13.508Z,17.56
2018-05-14T12:34:40.575Z,17.67
2018-05-14T12:37:07.700Z,17.89
2018-05-14T12:39:35.012Z,17.78
2018-05-14T12:42:02.326Z,17.83
2018-05-14T12:44:29.348Z,17.77
2018-05-14T12:46:56.446Z,17.77
2018-05-14T12:49:23.478Z,17.56
2018-05-14T12:51:50.602Z,17.49
2018-05-14T12:54:17.757Z,17.38
2018-05-14T12:56:44.981Z,17.41
2018-05-14T12:59:12.136Z,17.41
2018-05-14T13:01:39.376Z,17.38
2018-05-14T13:04:06.432Z,17.33
2018-05-14T13:06:33.539Z,17.41
2018-05-14T13:09:00.567Z,17.49
2018-05-14T13:11:27.689Z,17.68
2018-05-14T13:13:55.228Z,17.79
2018-05-14T13:16:22.297Z,17.84
2018-05-14T13:18:49.322Z,17.87
2018-05-14T13:21:17.081Z,17.80
2018-05-14T13:23:44.221Z,17.84
2018-05-14T13:26:11.362Z,18.01
2018-05-14T13:28:38.446Z,18.22
2018-05-14T13:31:05.511Z,18.36
2018-05-14T13:33:32.577Z,18.27
2018-05-14T13:35:59.766Z,18.58
2018-05-14T13:38:27.090Z,17.99
2018-05-14T13:40:54.247Z,18.10
2018-05-14T13:43:21.511Z,18.19
2018-05-14T13:45:48.556Z,18.17
2018-05-14T13:48:15.631Z,17.98
2018-05-14T13:50:42.688Z,17.93
2018-05-14T13:53:09.745Z,17.85
2018-05-14T13:55:36.862Z,17.77
2018-05-14T13:58:04.168Z,17.81
2018-05-14T14:00:31.434Z,17.90
2018-05-14T14:02:58.628Z,18.19
2018-05-14T14:05:25.655Z,18.56
2018-05-14T14:07:52.792Z,18.76
2018-05-14T14:10:19.807Z,18.83
2018-05-14T14:12:46.854Z,18.76
2018-05-14T14:15:14.118Z,18.48
2018-05-14T14:17:41.262Z,18.32
2018-05-14T14:20:08.277Z,18.13
2018-05-14T14:22:35.294Z,17.89
2018-05-14T14:25:02.353Z,17.81
2018-05-14T14:27:29.453Z,17.69
2018-05-14T14:29:57.677Z,17.60
2018-05-14T14:32:24.932Z,17.52
2018-05-14T14:34:51.958Z,17.52
2018-05-14T14:37:18.996Z,17.52
2018-05-14T14:39:46.009Z,17.54
2018-05-14T14:42:13.167Z,17.55
2018-05-14T14:44:40.324Z,17.61
2018-05-14T14:47:07.345Z,17.59
2018-05-14T14:49:35.405Z,17.59
2018-05-14T14:52:02.654Z,17.61
2018-05-14T14:54:29.704Z,17.59
2018-05-14T14:56:56.768Z,17.74
2018-05-14T14:59:23.978Z,17.93
2018-05-14T15:01:50.963Z,18.02
2018-05-14T15:04:17.994Z,18.09
2018-05-14T15:06:45.045Z,18.01
2018-05-14T15:09:12.163Z,17.97
2018-05-14T15:11:39.355Z,17.91
2018-05-14T15:14:08.015Z,17.81
2018-05-14T15:16:35.049Z,17.69
2018-05-14T15:19:02.444Z,17.65
2018-05-14T15:21:29.547Z,17.62
2018-05-14T15:23:56.678Z,17.65
2018-05-14T15:26:23.717Z,17.59
2018-05-14T15:28:50.870Z,17.61
2018-05-14T15:31:17.893Z,17.61
2018-05-14T15:33:44.969Z,17.57
2018-05-14T15:36:11.975Z,17.55
2018-05-14T15:38:39.026Z,17.51
2018-05-14T15:41:06.075Z,17.45
2018-05-14T15:43:33.147Z,17.49
2018-05-14T15:46:00.219Z,17.52
2018-05-14T15:48:27.357Z,17.51
2018-05-14T15:50:54.473Z,17.48
2018-05-14T15:53:22.561Z,17.37
2018-05-14T15:55:49.588Z,17.27
2018-05-14T15:58:16.698Z,17.25
2018-05-14T16:00:44.968Z,17.25
2018-05-14T16:03:12.072Z,17.38
2018-05-14T16:05:39.251Z,17.50
2018-05-14T16:08:06.510Z,17.56
2018-05-14T16:10:33.536Z,17.53
2018-05-14T16:13:00.580Z,17.47
2018-05-14T16:15:27.749Z,17.25
2018-05-14T16:17:55.224Z,17.13
2018-05-14T16:20:22.389Z,17.15
2018-05-14T16:22:50.392Z,17.09
2018-05-14T16:25:17.470Z,17.12
2018-05-14T16:27:44.603Z,17.11
2018-05-14T16:30:11.618Z,16.87
2018-05-14T16:32:38.634Z,16.84
2018-05-14T16:35:05.662Z,16.47
2018-05-14T16:37:32.672Z,16.48
2018-05-14T16:39:59.794Z,16.28
2018-05-14T16:42:26.830Z,16.31
2018-05-14T16:44:53.869Z,16.08
2018-05-14T16:47:20.894Z,16.17
2018-05-14T16:49:48.069Z,16.17
2018-05-14T16:52:15.364Z,16.43
2018-05-14T16:54:42.378Z,16.61
2018-05-14T16:57:09.410Z,16.61
2018-05-14T16:59:36.528Z,16.11
2018-05-14T17:02:03.572Z,16.06
2018-05-14T17:04:30.643Z,16.14
2018-05-14T17:06:57.895Z,16.27
2018-05-14T17:09:24.935Z,16.35
2018-05-14T17:11:52.049Z,16.31
2018-05-14T17:14:19.124Z,16.39
2018-05-14T17:16:47.118Z,16.45
2018-05-14T17:19:14.636Z,16.46
2018-05-14T17:21:41.703Z,16.47
2018-05-14T17:24:08.773Z,16.52
2018-05-14T17:26:35.905Z,16.59
2018-05-14T17:29:02.974Z,16.60
2018-05-14T17:31:30.087Z,16.64
2018-05-14T17:33:57.201Z,16.52
2018-05-14T17:36:24.835Z,16.49
2018-05-14T17:38:52.015Z,16.49
2018-05-14T17:41:19.046Z,16.51
2018-05-14T17:43:46.109Z,16.50
2018-05-14T17:46:13.166Z,16.47
2018-05-14T17:48:40.436Z,16.46
2018-05-14T17:51:07.585Z,16.41
2018-05-14T17:53:34.616Z,16.40
2018-05-14T17:56:01.648Z,16.35
2018-05-14T17:58:29.914Z,16.31
2018-05-14T18:00:56.999Z,16.28
2018-05-14T18:03:24.050Z,16.22
2018-05-14T18:05:51.985Z,16.23
2018-05-14T18:08:19.054Z,16.22
2018-05-14T18:10:46.157Z,16.20
2018-05-14T18:13:13.811Z,16.12
2018-05-14T18:15:40.898Z,15.98
2018-05-14T18:18:08.059Z,15.86
2018-05-14T18:20:38.123Z,15.74
2018-05-14T18:23:05.156Z,15.71
2018-05-14T18:25:37.886Z,15.71
2018-05-14T18:28:09.795Z,15.73
2018-05-14T18:30:39.873Z,15.66
2018-05-14T18:33:10.910Z,15.67
2018-05-14T18:38:31.878Z,15.66
2018-05-14T18:40:59.871Z,15.70
2018-05-14T18:43:27.081Z,15.70
2018-05-14T18:45:54.121Z,15.70
2018-05-14T18:48:21.155Z,15.73
2018-05-14T18:50:49.172Z,15.72
2018-05-14T18:53:16.379Z,15.73
2018-05-14T18:55:43.505Z,15.68
2018-05-14T18:58:10.727Z,15.66
2018-05-14T19:00:38.021Z,15.60
2018-05-14T19:03:05.106Z,15.61
2018-05-14T19:05:32.149Z,15.60
2018-05-14T19:07:59.461Z,15.60
2018-05-14T19:10:32.136Z,15.59
2018-05-14T19:12:59.186Z,15.55
2018-05-14T19:15:32.196Z,15.56
2018-05-14T19:18:00.151Z,15.57
2018-05-14T19:20:27.290Z,15.55
2018-05-14T19:23:00.134Z,15.53
2018-05-14T19:25:27.201Z,15.45
2018-05-14T19:27:59.839Z,15.38
2018-05-14T19:30:26.891Z,15.35
2018-05-14T19:32:53.940Z,15.37
2018-05-14T19:35:26.521Z,15.33
2018-05-14T19:37:53.577Z,15.12
2018-05-14T19:40:26.296Z,15.08
2018-05-14T19:42:53.540Z,15.13
2018-05-14T19:45:20.604Z,15.19
2018-05-14T19:47:47.772Z,15.24
2018-05-14T19:50:14.906Z,15.24
2018-05-14T19:52:43.152Z,15.30
2018-05-14T19:55:10.180Z,15.32
2018-05-14T19:57:37.253Z,15.34
2018-05-14T20:00:04.369Z,15.34
2018-05-14T20:02:31.520Z,15.33
2018-05-14T20:04:58.544Z,15.35
2018-05-14T20:07:25.638Z,15.36
2018-05-14T20:09:52.818Z,15.40
2018-05-14T20:12:19.849Z,15.35
2018-05-14T20:14:47.174Z,15.36
2018-05-14T20:17:14.226Z,15.34
2018-05-14T20:19:41.397Z,15.36
2018-05-14T20:22:08.666Z,15.38
2018-05-14T20:24:35.697Z,15.40
2018-05-14T20:27:02.838Z,15.42
2018-05-14T20:29:29.876Z,15.40
2018-05-14T20:31:56.891Z,15.39
2018-05-14T20:34:23.926Z,15.35
2018-05-14T20:36:50.988Z,15.32
2018-05-14T20:39:18.042Z,15.29
2018-05-14T20:41:45.115Z,15.30
2018-05-14T20:44:12.140Z,15.30
2018-05-14T20:46:39.197Z,15.34
2018-05-14T20:49:06.252Z,15.36
2018-05-14T20:51:33.264Z,15.35
2018-05-14T20:54:00.269Z,15.35
2018-05-14T20:56:27.386Z,15.33
2018-05-14T20:58:54.445Z,15.35
2018-05-14T21:01:21.488Z,15.33
2018-05-14T21:03:48.538Z,15.29
2018-05-14T21:06:15.705Z,15.23
2018-05-14T21:08:43.122Z,15.25
2018-05-14T21:11:10.151Z,15.28
2018-05-14T21:13:37.206Z,15.20
2018-05-14T21:16:04.505Z,15.20
2018-05-14T21:18:32.175Z,15.25
2018-05-14T21:20:59.226Z,15.19
2018-05-14T21:23:26.615Z,15.17
2018-05-14T21:25:53.862Z,15.13
2018-05-14T21:28:21.105Z,15.09
2018-05-14T21:30:48.294Z,15.07
2018-05-14T21:33:15.361Z,15.04
2018-05-14T21:35:43.006Z,14.96
2018-05-14T21:38:10.060Z,14.96
2018-05-14T21:40:37.093Z,14.87
2018-05-14T21:43:04.103Z,14.86
2018-05-14T21:45:31.213Z,14.84
2018-05-14T21:47:58.216Z,14.79
2018-05-14T21:50:25.369Z,14.72
2018-05-14T21:52:52.387Z,14.76
2018-05-14T21:55:19.463Z,14.68
2018-05-14T21:57:46.465Z,14.71
2018-05-14T22:00:13.720Z,14.69
2018-05-14T22:02:40.936Z,14.62
2018-05-14T22:05:08.120Z,14.67
2018-05-14T22:07:35.130Z,14.64
2018-05-14T22:10:02.193Z,14.66
2018-05-14T22:12:29.321Z,14.57
2018-05-14T22:14:56.424Z,14.54
2018-05-14T22:17:23.430Z,14.46
2018-05-14T22:19:50.496Z,14.47
2018-05-14T22:22:17.514Z,14.51
2018-05-14T22:24:44.601Z,14.44
2018-05-14T22:27:11.798Z,14.32
2018-05-14T22:29:38.828Z,14.41
2018-05-14T22:32:05.825Z,14.36
2018-05-14T22:34:32.855Z,14.29
2018-05-14T22:36:59.952Z,14.33
2018-05-14T22:39:27.041Z,14.31
2018-05-14T22:41:54.326Z,14.27
2018-05-14T22:44:21.941Z,14.21
2018-05-14T22:46:49.670Z,14.26
2018-05-14T22:49:17.675Z,14.32
2018-05-14T22:51:45.267Z,14.34
2018-05-14T22:54:12.792Z,14.28
2018-05-14T22:56:39.937Z,14.27
2018-05-14T22:59:07.162Z,14.27
2018-05-14T23:01:34.350Z,14.25
2018-05-14T23:04:01.453Z,14.19
2018-05-14T23:06:28.612Z,14.19
2018-05-14T23:08:56.461Z,14.15
2018-05-14T23:11:23.536Z,14.07
2018-05-14T23:13:50.887Z,14.05
2018-05-14T23:16:18.135Z,14.08
2018-05-14T23:18:45.205Z,14.10
2018-05-14T23:21:12.652Z,14.11
2018-05-14T23:23:39.772Z,14.12
2018-05-14T23:26:07.088Z,14.13
2018-05-14T23:28:34.101Z,14.13
2018-05-14T23:31:01.698Z,14.13
2018-05-14T23:33:28.872Z,14.16
2018-05-14T23:35:55.877Z,14.21
2018-05-14T23:38:22.902Z,14.22
2018-05-14T23:40:49.918Z,14.15
2018-05-14T23:43:17.072Z,14.07
2018-05-14T23:45:44.378Z,13.98
2018-05-14T23:48:12.589Z,13.89
2018-05-14T23:50:39.787Z,13.86
2018-05-14T23:53:07.370Z,13.81
2018-05-14T23:55:35.018Z,13.82
2018-05-14T23:58:02.679Z,13.87
